createdAt,value
2023-10-13T00:00:44.431Z,100708.19
2023-10-13T00:03:17.310Z,100719.69
2023-10-13T00:05:46.915Z,100702.13
2023-10-13T00:08:15.796Z,100713.59
2023-10-13T00:10:44.499Z,100717.03
2023-10-13T00:13:17.141Z,100719.63
2023-10-13T00:15:58.227Z,100717.00
2023-10-13T00:18:28.407Z,100711.66
2023-10-13T00:20:58.565Z,100709.03
2023-10-13T00:23:28.247Z,100713.53
2023-10-13T00:26:00.166Z,100710.03
2023-10-13T00:28:36.984Z,100714.34
2023-10-13T00:31:11.928Z,100705.53
2023-10-13T00:33:42.184Z,100702.88
2023-10-13T00:36:18.514Z,100694.97
2023-10-13T00:38:49.509Z,100694.00
2023-10-13T00:41:19.201Z,100690.44
2023-10-13T00:44:05.004Z,100686.94
2023-10-13T00:46:35.624Z,100684.31
2023-10-13T00:49:05.802Z,100676.38
2023-10-13T00:51:36.202Z,100672.97
2023-10-13T00:54:09.055Z,100671.19
2023-10-13T00:56:42.198Z,100657.97
2023-10-13T00:59:11.490Z,100658.75
2023-10-13T01:01:42.282Z,100663.13
2023-10-13T01:04:13.741Z,100655.34
2023-10-13T01:06:43.293Z,100648.34
2023-10-13T01:09:13.288Z,100657.03
2023-10-13T01:11:44.290Z,100645.66
2023-10-13T01:14:12.391Z,100646.47
2023-10-13T01:16:45.278Z,100642.91
2023-10-13T01:19:13.586Z,100644.78
2023-10-13T01:21:42.913Z,100642.06
2023-10-13T01:24:18.709Z,100633.13
2023-10-13T01:26:52.399Z,100627.16
2023-10-13T01:29:20.585Z,100633.22
2023-10-13T01:31:49.303Z,100630.63
2023-10-13T01:34:23.260Z,100627.16
2023-10-13T01:36:53.168Z,100620.06
2023-10-13T01:39:27.952Z,100614.72
2023-10-13T01:41:57.397Z,100612.09
2023-10-13T01:44:25.666Z,100613.81
2023-10-13T01:46:53.752Z,100609.31
2023-10-13T01:49:23.498Z,100605.81
2023-10-13T01:51:51.608Z,100600.47
2023-10-13T01:54:18.830Z,100602.16
2023-10-13T01:56:50.042Z,100603.97
2023-10-13T01:59:19.517Z,100599.47
2023-10-13T02:01:47.798Z,100595.97
2023-10-13T02:04:15.367Z,100598.69
2023-10-13T02:06:44.508Z,100592.69
2023-10-13T02:09:14.006Z,100584.03
2023-10-13T02:11:43.304Z,100586.59
2023-10-13T02:14:12.326Z,100575.25
2023-10-13T02:16:41.330Z,100577.22
2023-10-13T02:19:09.833Z,100583.41
2023-10-13T02:21:42.077Z,100579.28
2023-10-13T02:24:14.657Z,100572.41
2023-10-13T02:26:43.091Z,100569.00
2023-10-13T02:29:14.131Z,100564.75
2023-10-13T02:31:43.387Z,100558.69
2023-10-13T02:34:10.724Z,100556.25
2023-10-13T02:36:48.001Z,100551.84
2023-10-13T02:39:17.237Z,100551.06
2023-10-13T02:41:49.165Z,100545.63
2023-10-13T02:44:27.902Z,100537.00
2023-10-13T02:46:57.166Z,100531.72
2023-10-13T02:49:27.318Z,100537.84
2023-10-13T02:51:56.959Z,100536.03
2023-10-13T02:54:31.321Z,100532.63
2023-10-13T02:57:00.438Z,100525.56
2023-10-13T02:59:35.604Z,100524.66
2023-10-13T03:02:18.426Z,100522.94
2023-10-13T03:04:46.405Z,100518.56
2023-10-13T03:07:16.808Z,100513.38
2023-10-13T03:09:51.757Z,100514.22
2023-10-13T03:12:19.929Z,100504.47
2023-10-13T03:14:49.008Z,100495.69
2023-10-13T03:17:18.454Z,100492.84
2023-10-13T03:19:51.270Z,100498.13
2023-10-13T03:22:19.656Z,100491.84
2023-10-13T03:24:48.257Z,100480.19
2023-10-13T03:27:17.864Z,100481.06
2023-10-13T03:29:49.243Z,100475.88
2023-10-13T03:32:19.355Z,100466.09
2023-10-13T03:35:07.939Z,100465.09
2023-10-13T03:37:40.157Z,100467.53
2023-10-13T03:40:30.488Z,100457.81
2023-10-13T03:43:05.725Z,100452.47
2023-10-13T03:45:38.854Z,100453.41
2023-10-13T03:48:12.828Z,100453.41
2023-10-13T03:50:48.435Z,100455.09
2023-10-13T03:53:16.634Z,100446.31
2023-10-13T03:55:49.306Z,100435.84
2023-10-13T03:58:17.990Z,100415.72
2023-10-13T04:00:46.449Z,100425.19
2023-10-13T04:03:19.137Z,100428.78
2023-10-13T04:06:01.889Z,100415.59
2023-10-13T04:08:55.854Z,100415.44
2023-10-13T04:11:41.384Z,100410.06
2023-10-13T04:14:45.705Z,100409.16
2023-10-13T04:17:15.146Z,100410.78
2023-10-13T04:20:13.466Z,100419.47
2023-10-13T04:22:56.557Z,100410.72
2023-10-13T04:25:40.204Z,100402.75
2023-10-13T04:28:35.108Z,100409.66
2023-10-13T04:31:13.086Z,100413.13
2023-10-13T04:33:52.529Z,100400.81
2023-10-13T04:36:37.648Z,100396.31
2023-10-13T04:39:11.169Z,100407.44
2023-10-13T04:41:46.163Z,100397.59
2023-10-13T04:44:49.057Z,100403.34
2023-10-13T04:47:30.686Z,100402.28
2023-10-13T04:50:01.806Z,100385.66
2023-10-13T04:53:02.535Z,100387.44
2023-10-13T04:56:00.884Z,100389.22
2023-10-13T04:58:58.002Z,100380.44
2023-10-13T05:01:40.117Z,100384.66
2023-10-13T05:04:23.367Z,100378.28
2023-10-13T05:07:09.134Z,100374.50
2023-10-13T05:09:55.686Z,100377.84
2023-10-13T05:12:41.419Z,100379.47
2023-10-13T05:15:27.344Z,100369.75
2023-10-13T05:18:12.688Z,100373.78
2023-10-13T05:20:57.994Z,100373.88
2023-10-13T05:23:43.576Z,100370.44
2023-10-13T05:26:30.172Z,100375.16
2023-10-13T05:29:28.906Z,100376.16
2023-10-13T05:32:15.348Z,100370.13
2023-10-13T05:35:00.911Z,100358.53
2023-10-13T05:37:46.275Z,100367.22
2023-10-13T05:40:32.362Z,100361.72
2023-10-13T05:43:19.419Z,100351.88
2023-10-13T05:46:19.393Z,100358.78
2023-10-13T05:51:48.894Z,100364.06
2023-10-13T05:54:34.179Z,100360.41
2023-10-13T05:57:19.686Z,100357.56
2023-10-13T06:00:05.123Z,100350.34
2023-10-13T06:02:50.385Z,100354.34
2023-10-13T06:05:36.262Z,100366.34
2023-10-13T06:08:23.778Z,100369.44
2023-10-13T06:11:08.946Z,100360.38
2023-10-13T06:13:54.133Z,100357.41
2023-10-13T06:16:39.438Z,100351.69
2023-10-13T06:19:25.243Z,100352.94
2023-10-13T06:22:13.158Z,100353.81
2023-10-13T06:24:59.806Z,100350.00
2023-10-13T06:27:45.540Z,100353.34
2023-10-13T06:30:14.681Z,100351.41
2023-10-13T06:32:42.878Z,100357.28
2023-10-13T06:35:19.941Z,100354.31
2023-10-13T06:37:48.882Z,100341.88
2023-10-13T06:40:35.868Z,100343.34
2023-10-13T06:43:18.032Z,100345.66
2023-10-13T06:45:52.152Z,100346.25
2023-10-13T06:48:21.157Z,100341.75
2023-10-13T06:50:53.307Z,100343.28
2023-10-13T06:53:21.471Z,100340.22
2023-10-13T06:55:53.760Z,100336.47
2023-10-13T06:58:25.194Z,100346.03
2023-10-13T07:00:56.665Z,100329.19
2023-10-13T07:03:26.132Z,100325.44
2023-10-13T07:05:55.050Z,100316.47
2023-10-13T07:08:23.076Z,100319.03
2023-10-13T07:11:03.945Z,100322.28
2023-10-13T07:13:32.073Z,100312.38
2023-10-13T07:18:42.766Z,100313.81
2023-10-13T07:21:11.744Z,100307.41
2023-10-13T07:23:40.209Z,100297.50
2023-10-13T07:26:09.932Z,100317.44
2023-10-13T07:28:44.548Z,100304.84
2023-10-13T07:31:15.709Z,100312.38
2023-10-13T07:33:43.671Z,100307.47
2023-10-13T07:36:29.100Z,100308.94
2023-10-13T07:39:33.324Z,100306.00
2023-10-13T07:42:09.335Z,100303.78
2023-10-13T07:44:41.527Z,100303.03
2023-10-13T07:47:11.905Z,100304.66
2023-10-13T07:49:41.434Z,100295.84
2023-10-13T07:52:30.568Z,100292.34
2023-10-13T07:55:12.282Z,100286.28
2023-10-13T07:57:55.625Z,100281.34
2023-10-13T08:00:30.933Z,100285.34
2023-10-13T08:03:10.104Z,100279.59
2023-10-13T08:05:57.250Z,100281.59
2023-10-13T08:08:26.940Z,100274.06
2023-10-13T08:10:58.226Z,100267.13
2023-10-13T08:13:27.718Z,100266.66
2023-10-13T08:15:55.944Z,100271.41
2023-10-13T08:18:31.541Z,100270.94
2023-10-13T08:21:04.480Z,100272.34
2023-10-13T08:23:57.010Z,100272.81
2023-10-13T08:26:53.112Z,100264.47
2023-10-13T08:29:39.668Z,100271.97
2023-10-13T08:32:25.054Z,100266.66
2023-10-13T08:35:11.005Z,100270.91
2023-10-13T08:38:08.564Z,100272.16
2023-10-13T08:41:12.530Z,100270.72
2023-10-13T08:43:48.382Z,100253.28
2023-10-13T08:46:30.567Z,100261.03
2023-10-13T08:49:15.267Z,100256.78
2023-10-13T08:51:50.321Z,100249.31
2023-10-13T08:54:35.023Z,100263.22
2023-10-13T08:57:18.509Z,100259.44
2023-10-13T08:59:54.137Z,100248.16
2023-10-13T09:02:44.791Z,100248.94
2023-10-13T09:05:28.101Z,100263.13
2023-10-13T09:08:09.156Z,100254.59
2023-10-13T09:10:46.270Z,100251.06
2023-10-13T09:13:20.154Z,100259.75
2023-10-13T09:16:03.054Z,100263.91
2023-10-13T09:18:47.500Z,100260.19
2023-10-13T09:21:35.709Z,100257.09
2023-10-13T09:26:58.255Z,100251.06
2023-10-13T09:29:26.169Z,100226.91
2023-10-13T09:32:05.752Z,100236.47
2023-10-13T09:34:35.581Z,100230.75
2023-10-13T09:37:05.755Z,100225.34
2023-10-13T09:39:46.118Z,100228.88
2023-10-13T09:42:19.172Z,100235.16
2023-10-13T09:44:56.795Z,100235.00
2023-10-13T09:47:33.747Z,100230.13
2023-10-13T09:50:07.122Z,100216.38
2023-10-13T09:52:38.726Z,100214.59
2023-10-13T09:55:19.598Z,100202.63
2023-10-13T09:57:59.217Z,100204.41
2023-10-13T10:00:53.866Z,100203.72
2023-10-13T10:03:42.038Z,100203.22
2023-10-13T10:06:17.131Z,100199.47
2023-10-13T10:08:52.246Z,100196.97
2023-10-13T10:11:52.479Z,100191.88
2023-10-13T10:14:31.984Z,100194.13
2023-10-13T10:17:10.031Z,100183.56
2023-10-13T10:19:56.254Z,100192.63
2023-10-13T10:22:34.847Z,100194.78
2023-10-13T10:25:04.034Z,100184.97
2023-10-13T10:27:33.545Z,100189.03
2023-10-13T10:30:04.936Z,100194.97
2023-10-13T10:32:37.692Z,100194.13
2023-10-13T10:35:08.958Z,100189.25
2023-10-13T10:37:38.508Z,100192.38
2023-10-13T10:40:09.970Z,100184.00
2023-10-13T10:42:41.204Z,100191.16
2023-10-13T10:45:13.046Z,100188.34
2023-10-13T10:47:50.135Z,100184.72
2023-10-13T10:50:35.921Z,100185.19
2023-10-13T10:53:09.963Z,100189.97
2023-10-13T10:55:38.601Z,100179.66
2023-10-13T10:58:07.669Z,100175.22
2023-10-13T11:00:47.535Z,100165.50
2023-10-13T11:03:15.750Z,100165.28
2023-10-13T11:05:47.705Z,100160.19
2023-10-13T11:08:32.669Z,100157.28
2023-10-13T11:11:02.321Z,100145.03
2023-10-13T11:13:44.167Z,100135.66
2023-10-13T11:16:24.986Z,100138.69
2023-10-13T11:19:02.759Z,100140.06
2023-10-13T11:21:32.806Z,100144.44
2023-10-13T11:24:09.849Z,100139.34
2023-10-13T11:26:44.240Z,100140.41
2023-10-13T11:29:12.279Z,100116.72
2023-10-13T11:31:42.905Z,100122.56
2023-10-13T11:34:19.281Z,100117.84
2023-10-13T11:36:47.441Z,100120.97
2023-10-13T11:39:19.965Z,100110.63
2023-10-13T11:41:55.043Z,100105.53
2023-10-13T11:44:32.082Z,100112.84
2023-10-13T11:47:33.860Z,100098.53
2023-10-13T11:50:01.952Z,100103.53
2023-10-13T11:52:31.201Z,100108.47
2023-10-13T11:54:59.145Z,100096.47
2023-10-13T11:57:27.485Z,100096.47
2023-10-13T11:59:57.111Z,100097.19
2023-10-13T12:02:44.261Z,100093.69
2023-10-13T12:05:17.944Z,100092.34
2023-10-13T12:07:50.451Z,100087.25
2023-10-13T12:10:34.277Z,100092.00
2023-10-13T12:13:06.789Z,100096.28
2023-10-13T12:15:52.605Z,100093.16
2023-10-13T12:18:24.187Z,100097.63
2023-10-13T12:20:52.128Z,100095.47
2023-10-13T12:23:21.895Z,100085.78
2023-10-13T12:26:02.364Z,100080.00
2023-10-13T12:28:32.534Z,100075.72
2023-10-13T12:31:08.465Z,100076.06
2023-10-13T12:33:41.857Z,100072.97
2023-10-13T12:36:16.066Z,100069.78
2023-10-13T12:39:13.685Z,100062.06
2023-10-13T12:41:59.042Z,100061.50
2023-10-13T12:44:44.841Z,100067.56
2023-10-13T12:47:30.212Z,100060.03
2023-10-13T12:50:15.349Z,100045.38
2023-10-13T12:52:46.864Z,100047.44
2023-10-13T12:55:20.209Z,100043.88
2023-10-13T12:57:48.659Z,100035.94
2023-10-13T13:00:24.081Z,100051.13
2023-10-13T13:02:54.035Z,100042.22
2023-10-13T13:05:29.614Z,100048.44
2023-10-13T13:07:57.831Z,100058.44
2023-10-13T13:10:36.293Z,100037.91
2023-10-13T13:13:06.619Z,100034.03
2023-10-13T13:15:34.792Z,100028.44
2023-10-13T13:18:11.451Z,100021.47
2023-10-13T13:20:45.125Z,100020.88
2023-10-13T13:23:14.788Z,100030.31
2023-10-13T13:25:44.664Z,100035.16
2023-10-13T13:28:12.585Z,100029.50
2023-10-13T13:30:40.661Z,100019.91
2023-10-13T13:33:13.030Z,100009.28
2023-10-13T13:35:44.133Z,100008.34
2023-10-13T13:38:18.023Z,100007.91
2023-10-13T13:40:50.545Z,100006.72
2023-10-13T13:43:32.959Z,99999.63
2023-10-13T13:46:03.488Z,100014.88
2023-10-13T13:48:32.455Z,100003.78
2023-10-13T13:51:07.192Z,100010.66
2023-10-13T13:53:36.175Z,100022.97
2023-10-13T13:56:04.619Z,100025.50
2023-10-13T13:58:32.707Z,100015.44
2023-10-13T14:01:12.828Z,100018.69
2023-10-13T14:03:46.504Z,100021.91
2023-10-13T14:06:19.685Z,100019.28
2023-10-13T14:08:49.634Z,100021.50
2023-10-13T14:11:44.248Z,100010.34
2023-10-13T14:14:26.998Z,99994.69
2023-10-13T14:17:03.511Z,99991.56
2023-10-13T14:19:31.764Z,99998.72
2023-10-13T14:22:07.254Z,99989.75
2023-10-13T14:24:36.987Z,99990.72
2023-10-13T14:27:10.547Z,99996.56
2023-10-13T14:29:41.326Z,99987.69
2023-10-13T14:32:13.707Z,100000.44
2023-10-13T14:34:42.545Z,99991.22
2023-10-13T14:37:13.808Z,99995.84
2023-10-13T14:39:41.805Z,99987.25
2023-10-13T14:42:09.896Z,99985.69
2023-10-13T14:44:38.450Z,99987.50
2023-10-13T14:47:09.948Z,99999.00
2023-10-13T14:49:38.411Z,99995.84
2023-10-13T14:52:06.751Z,99984.31
2023-10-13T14:54:36.114Z,99993.19
2023-10-13T14:57:04.663Z,100002.69
2023-10-13T14:59:34.500Z,99992.97
2023-10-13T15:02:04.112Z,99992.34
2023-10-13T15:04:34.372Z,99995.75
2023-10-13T15:07:04.116Z,99993.09
2023-10-13T15:09:32.510Z,99987.16
2023-10-13T15:12:06.576Z,99988.47
2023-10-13T15:14:38.070Z,99989.47
2023-10-13T15:17:07.388Z,99981.22
2023-10-13T15:19:37.267Z,99968.03
2023-10-13T15:22:07.258Z,99958.56
2023-10-13T15:24:42.809Z,99949.69
2023-10-13T15:27:12.251Z,99951.28
2023-10-13T15:29:40.335Z,99954.66
2023-10-13T15:32:22.294Z,99956.97
2023-10-13T15:34:50.246Z,99960.13
2023-10-13T15:37:18.293Z,99960.72
2023-10-13T15:39:46.196Z,99953.31
2023-10-13T15:42:15.795Z,99955.88
2023-10-13T15:44:44.807Z,99937.69
2023-10-13T15:49:44.583Z,99931.88
2023-10-13T15:52:12.596Z,99937.69
2023-10-13T15:54:42.008Z,99941.31
2023-10-13T15:57:17.360Z,99940.97
2023-10-13T15:59:47.696Z,99942.19
2023-10-13T16:02:18.290Z,99947.25
2023-10-13T16:04:46.754Z,99942.94
2023-10-13T16:07:14.823Z,99937.69
2023-10-13T16:09:42.810Z,99943.38
2023-10-13T16:12:12.077Z,99937.56
2023-10-13T16:14:41.260Z,99925.22
2023-10-13T16:17:10.966Z,99925.69
2023-10-13T16:19:38.902Z,99927.53
2023-10-13T16:22:08.398Z,99929.34
2023-10-13T16:24:36.661Z,99922.44
2023-10-13T16:27:04.793Z,99921.84
2023-10-13T16:29:33.279Z,99904.25
2023-10-13T16:32:01.597Z,99914.91
2023-10-13T16:34:30.968Z,99916.84
2023-10-13T16:36:59.025Z,99918.28
2023-10-13T16:39:29.498Z,99910.53
2023-10-13T16:41:57.461Z,99911.41
2023-10-13T16:44:26.920Z,99910.78
2023-10-13T16:46:58.037Z,99892.72
2023-10-13T16:49:26.467Z,99901.59
2023-10-13T16:51:55.849Z,99898.81
2023-10-13T16:54:24.251Z,99893.81
2023-10-13T16:56:56.678Z,99894.88
2023-10-13T16:59:27.572Z,99887.75
2023-10-13T17:01:56.121Z,99876.00
2023-10-13T17:04:28.202Z,99870.53
2023-10-13T17:06:58.365Z,99865.22
2023-10-13T17:09:26.697Z,99861.69
2023-10-13T17:11:54.644Z,99859.25
2023-10-13T17:14:22.816Z,99843.16
2023-10-13T17:16:51.279Z,99834.56
2023-10-13T17:19:20.810Z,99826.72
2023-10-13T17:21:50.101Z,99838.81
2023-10-13T17:24:21.007Z,99842.44
2023-10-13T17:26:51.038Z,99839.06
2023-10-13T17:29:23.845Z,99833.50
2023-10-13T17:31:51.949Z,99845.19
2023-10-13T17:34:20.190Z,99837.34
2023-10-13T17:36:50.084Z,99842.66
2023-10-13T17:39:20.364Z,99835.53
2023-10-13T17:41:49.461Z,99827.78
2023-10-13T17:44:18.146Z,99833.13
2023-10-13T17:46:46.440Z,99821.72
2023-10-13T17:49:14.499Z,99817.25
2023-10-13T17:51:44.433Z,99812.16
2023-10-13T17:54:13.309Z,99808.19
2023-10-13T17:56:43.144Z,99796.81
2023-10-13T17:59:13.572Z,99796.56
2023-10-13T18:01:41.823Z,99794.88
2023-10-13T18:04:13.125Z,99787.00
2023-10-13T18:06:43.754Z,99792.56
2023-10-13T18:09:13.192Z,99795.97
2023-10-13T18:11:43.917Z,99794.97
2023-10-13T18:14:12.901Z,99799.09
2023-10-13T18:16:42.587Z,99792.69
2023-10-13T18:19:10.888Z,99783.22
2023-10-13T18:21:39.452Z,99789.41
2023-10-13T18:24:09.410Z,99784.22
2023-10-13T18:26:37.884Z,99777.28
2023-10-13T18:29:10.220Z,99783.94
2023-10-13T18:31:38.019Z,99778.69
2023-10-13T18:34:06.705Z,99776.00
2023-10-13T18:36:34.660Z,99777.81
2023-10-13T18:39:08.153Z,99765.63
2023-10-13T18:41:37.381Z,99773.72
2023-10-13T18:44:10.504Z,99773.91
2023-10-13T18:46:38.808Z,99766.53
2023-10-13T18:49:07.055Z,99758.41
2023-10-13T18:51:35.027Z,99761.94
2023-10-13T18:54:03.760Z,99756.25
2023-10-13T18:56:33.859Z,99755.88
2023-10-13T18:59:03.534Z,99758.16
2023-10-13T19:01:35.700Z,99755.59
2023-10-13T19:04:05.880Z,99755.34
2023-10-13T19:06:35.679Z,99760.28
2023-10-13T19:09:06.147Z,99755.44
2023-10-13T19:11:36.289Z,99756.78
2023-10-13T19:14:05.878Z,99751.38
2023-10-13T19:16:37.006Z,99742.78
2023-10-13T19:19:05.646Z,99748.81
2023-10-13T19:21:37.359Z,99740.25
2023-10-13T19:24:07.261Z,99731.13
2023-10-13T19:26:37.442Z,99707.28
2023-10-13T19:29:06.729Z,99691.59
2023-10-13T19:31:36.748Z,99688.50
2023-10-13T19:34:06.506Z,99690.44
2023-10-13T19:36:35.913Z,99688.50
2023-10-13T19:39:08.895Z,99692.78
2023-10-13T19:41:38.405Z,99683.72
2023-10-13T19:44:07.169Z,99698.03
2023-10-13T19:46:37.633Z,99681.09
2023-10-13T19:49:06.728Z,99684.53
2023-10-13T19:51:35.162Z,99699.84
2023-10-13T19:54:04.918Z,99720.03
2023-10-13T19:56:34.470Z,99731.31
2023-10-13T19:59:03.479Z,99726.75
2023-10-13T20:01:34.950Z,99715.16
2023-10-13T20:04:08.699Z,99722.19
2023-10-13T20:06:37.424Z,99712.75
2023-10-13T20:09:19.959Z,99721.00
2023-10-13T20:11:48.358Z,99728.59
2023-10-13T20:14:16.397Z,99737.78
2023-10-13T20:16:45.591Z,99730.63
2023-10-13T20:19:17.663Z,99726.88
2023-10-13T20:21:46.439Z,99722.19
2023-10-13T20:24:16.438Z,99714.56
2023-10-13T20:26:44.897Z,99722.66
2023-10-13T20:29:17.100Z,99720.13
2023-10-13T20:31:48.446Z,99704.66
2023-10-13T20:34:20.990Z,99707.91
2023-10-13T20:36:49.393Z,99718.41
2023-10-13T20:39:25.221Z,99719.41
2023-10-13T20:41:53.963Z,99714.94
2023-10-13T20:44:27.715Z,99694.25
2023-10-13T20:46:57.990Z,99689.41
2023-10-13T20:49:29.351Z,99694.38
2023-10-13T20:51:57.409Z,99682.75
2023-10-13T20:54:25.335Z,99683.94
2023-10-13T20:56:55.708Z,99686.41
2023-10-13T21:01:51.684Z,99676.81
2023-10-13T21:04:19.777Z,99676.94
2023-10-13T21:06:50.796Z,99687.00
2023-10-13T21:09:22.394Z,99683.97
2023-10-13T21:11:50.645Z,99678.16
2023-10-13T21:14:18.879Z,99688.31
2023-10-13T21:16:47.323Z,99684.34
2023-10-13T21:19:16.434Z,99694.25
2023-10-13T21:21:44.463Z,99677.78
2023-10-13T21:24:13.789Z,99678.66
2023-10-13T21:26:42.007Z,99683.47
2023-10-13T21:29:10.021Z,99670.78
2023-10-13T21:31:38.670Z,99670.06
2023-10-13T21:34:08.293Z,99684.44
2023-10-13T21:36:39.628Z,99685.66
2023-10-13T21:39:11.972Z,99678.91
2023-10-13T21:41:42.340Z,99687.34
2023-10-13T21:44:10.375Z,99687.66
2023-10-13T21:46:39.057Z,99667.22
2023-10-13T21:49:07.324Z,99662.16
2023-10-13T21:51:36.760Z,99658.34
2023-10-13T21:54:08.572Z,99662.47
2023-10-13T21:56:36.898Z,99660.91
2023-10-13T21:59:11.629Z,99665.44
2023-10-13T22:01:40.699Z,99663.72
2023-10-13T22:04:12.296Z,99658.38
2023-10-13T22:06:42.573Z,99653.25
2023-10-13T22:09:11.402Z,99657.88
2023-10-13T22:11:41.088Z,99678.63
2023-10-13T22:14:13.853Z,99678.34
2023-10-13T22:16:42.317Z,99674.88
2023-10-13T22:19:10.328Z,99683.91
2023-10-13T22:21:38.570Z,99672.97
2023-10-13T22:24:07.308Z,99669.47
2023-10-13T22:26:35.456Z,99663.00
2023-10-13T22:29:06.256Z,99643.50
2023-10-13T22:31:35.850Z,99631.94
2023-10-13T22:34:05.853Z,99635.44
2023-10-13T22:36:34.217Z,99621.44
2023-10-13T22:39:02.211Z,99630.88
2023-10-13T22:41:34.532Z,99625.16
2023-10-13T22:44:06.455Z,99615.63
2023-10-13T22:46:35.927Z,99616.34
2023-10-13T22:49:03.859Z,99614.41
2023-10-13T22:51:32.259Z,99603.72
2023-10-13T22:54:00.547Z,99605.00
2023-10-13T22:56:29.455Z,99607.41
2023-10-13T22:58:57.396Z,99608.28
2023-10-13T23:01:25.356Z,99603.69
2023-10-13T23:03:58.389Z,99604.22
2023-10-13T23:06:31.860Z,99606.44
2023-10-13T23:09:09.908Z,99601.78
2023-10-13T23:11:39.970Z,99617.59
2023-10-13T23:14:13.128Z,99612.59
2023-10-13T23:16:41.675Z,99615.03
2023-10-13T23:19:11.204Z,99595.38
2023-10-13T23:21:40.224Z,99605.06
2023-10-13T23:24:11.024Z,99587.97
2023-10-13T23:26:39.932Z,99602.31
2023-10-13T23:29:11.051Z,99602.31
2023-10-13T23:31:39.989Z,99589.88
2023-10-13T23:34:08.154Z,99596.38
2023-10-13T23:36:39.639Z,99585.22
2023-10-13T23:39:20.302Z,99591.28
2023-10-13T23:41:48.200Z,99586.06
2023-10-13T23:44:16.239Z,99595.09
2023-10-13T23:46:45.834Z,99586.31
2023-10-13T23:49:19.115Z,99597.31
2023-10-13T23:51:55.056Z,99593.72
2023-10-13T23:54:23.433Z,99597.88
2023-10-13T23:56:52.875Z,99600.81
2023-10-13T23:59:28.078Z,99605.28
